createdAt,value
2023-01-10T00:01:43.669Z,97702.31
2023-01-10T00:04:11.700Z,97707.19
2023-01-10T00:06:40.019Z,97707.06
2023-01-10T00:09:11.481Z,97705.22
2023-01-10T00:11:57.199Z,97713.13
2023-01-10T00:14:25.231Z,97715.66
2023-01-10T00:16:53.083Z,97724.97
2023-01-10T00:19:21.411Z,97725.34
2023-01-10T00:21:49.684Z,97733.81
2023-01-10T00:24:20.040Z,97730.78
2023-01-10T00:26:52.758Z,97737.44
2023-01-10T00:29:21.884Z,97736.13
2023-01-10T00:31:50.038Z,97742.50
2023-01-10T00:34:18.319Z,97745.31
2023-01-10T00:36:48.040Z,97752.28
2023-01-10T00:39:18.154Z,97754.50
2023-01-10T00:42:05.483Z,97759.69
2023-01-10T00:44:34.149Z,97764.66
2023-01-10T00:47:02.185Z,97772.44
2023-01-10T00:49:30.530Z,97775.34
2023-01-10T00:51:59.698Z,97770.38
2023-01-10T00:54:27.824Z,97778.38
2023-01-10T00:56:57.063Z,97776.97
2023-01-10T00:59:25.355Z,97786.81
2023-01-10T01:01:53.806Z,97794.25
2023-01-10T01:04:21.773Z,97796.47
2023-01-10T01:06:50.855Z,97801.72
2023-01-10T01:09:19.208Z,97801.81
2023-01-10T01:11:47.955Z,97804.25
2023-01-10T01:14:17.697Z,97802.41
2023-01-10T01:16:45.762Z,97802.97
2023-01-10T01:19:13.820Z,97819.59
2023-01-10T01:21:41.832Z,97807.66
2023-01-10T01:24:11.165Z,97813.44
2023-01-10T01:26:40.266Z,97832.28
2023-01-10T01:29:08.299Z,97838.66
2023-01-10T01:31:37.716Z,97843.09
2023-01-10T01:34:06.960Z,97854.22
2023-01-10T01:36:34.834Z,97856.16
2023-01-10T01:39:03.856Z,97866.38
2023-01-10T01:41:49.639Z,97869.94
2023-01-10T01:44:19.159Z,97878.91
2023-01-10T01:46:54.597Z,97889.22
2023-01-10T01:49:25.731Z,97898.25
2023-01-10T01:52:01.140Z,97897.88
2023-01-10T01:54:33.039Z,97905.75
2023-01-10T01:57:05.594Z,97916.13
2023-01-10T01:59:37.865Z,97919.41
2023-01-10T02:02:13.227Z,97914.28
2023-01-10T02:04:47.812Z,97932.31
2023-01-10T02:07:16.671Z,97928.22
2023-01-10T02:09:50.153Z,97944.63
2023-01-10T02:12:19.064Z,97940.63
2023-01-10T02:14:50.803Z,97954.19
2023-01-10T02:17:20.621Z,97957.53
2023-01-10T02:19:53.257Z,97958.13
2023-01-10T02:23:02.101Z,97962.88
2023-01-10T02:26:01.039Z,97962.72
2023-01-10T02:28:55.726Z,97961.94
2023-01-10T02:32:07.825Z,97972.34
2023-01-10T02:34:46.345Z,97980.41
2023-01-10T02:37:21.386Z,97990.50
2023-01-10T02:39:57.040Z,97994.63
2023-01-10T02:42:30.802Z,98001.66
2023-01-10T02:45:06.639Z,97994.09
2023-01-10T02:47:40.574Z,98004.16
2023-01-10T02:50:43.091Z,98000.91
2023-01-10T02:53:13.066Z,98011.78
2023-01-10T02:55:59.237Z,98008.50
2023-01-10T02:58:42.230Z,98021.84
2023-01-10T03:01:18.826Z,98024.34
2023-01-10T03:03:58.116Z,98021.69
2023-01-10T03:06:36.283Z,98037.47
2023-01-10T03:09:12.284Z,98045.06
2023-01-10T03:11:42.726Z,98038.91
2023-01-10T03:14:16.610Z,98045.09
2023-01-10T03:16:50.629Z,98050.59
2023-01-10T03:19:24.156Z,98059.03
2023-01-10T03:21:57.486Z,98071.56
2023-01-10T03:24:31.551Z,98080.78
2023-01-10T03:27:05.401Z,98078.31
2023-01-10T03:29:40.647Z,98076.69
2023-01-10T03:32:13.835Z,98085.13
2023-01-10T03:34:43.174Z,98101.72
2023-01-10T03:37:19.291Z,98112.38
2023-01-10T03:39:58.653Z,98106.03
2023-01-10T03:42:57.272Z,98111.59
2023-01-10T03:45:30.691Z,98109.94
2023-01-10T03:48:03.467Z,98121.06
2023-01-10T03:50:35.883Z,98123.56
2023-01-10T03:53:05.056Z,98142.84
2023-01-10T03:55:35.115Z,98150.25
2023-01-10T03:58:02.955Z,98151.28
2023-01-10T04:00:31.401Z,98156.22
2023-01-10T04:02:59.366Z,98152.72
2023-01-10T04:05:28.324Z,98164.63
2023-01-10T04:07:58.142Z,98167.09
2023-01-10T04:10:27.352Z,98176.13
2023-01-10T04:12:55.902Z,98183.31
2023-01-10T04:15:24.163Z,98185.78
2023-01-10T04:17:52.319Z,98182.28
2023-01-10T04:20:20.882Z,98183.91
2023-01-10T04:22:51.350Z,98192.34
2023-01-10T04:25:21.549Z,98186.41
2023-01-10T04:27:50.615Z,98190.50
2023-01-10T04:30:19.544Z,98193.16
2023-01-10T04:32:48.366Z,98208.56
2023-01-10T04:35:16.827Z,98225.59
2023-01-10T04:37:44.923Z,98226.41
2023-01-10T04:40:17.297Z,98231.53
2023-01-10T04:42:46.825Z,98243.44
2023-01-10T04:45:17.881Z,98236.47
2023-01-10T04:47:50.896Z,98240.34
2023-01-10T04:50:19.445Z,98246.50
2023-01-10T04:52:47.376Z,98249.59
2023-01-10T04:55:15.497Z,98262.31
2023-01-10T04:57:43.911Z,98267.44
2023-01-10T05:00:14.540Z,98279.75
2023-01-10T05:02:44.749Z,98280.56
2023-01-10T05:05:13.494Z,98275.03
2023-01-10T05:07:42.198Z,98283.84
2023-01-10T05:10:11.993Z,98277.50
2023-01-10T05:12:40.333Z,98285.91
2023-01-10T05:15:09.448Z,98286.31
2023-01-10T05:17:39.999Z,98297.00
2023-01-10T05:20:09.215Z,98297.00
2023-01-10T05:22:37.112Z,98303.78
2023-01-10T05:25:06.070Z,98309.72
2023-01-10T05:27:34.061Z,98309.72
2023-01-10T05:30:02.416Z,98304.19
2023-01-10T05:32:31.281Z,98312.78
2023-01-10T05:35:00.641Z,98309.72
2023-01-10T05:37:28.773Z,98322.44
2023-01-10T05:39:56.999Z,98318.75
2023-01-10T05:42:24.956Z,98320.19
2023-01-10T05:44:52.939Z,98314.44
2023-01-10T05:47:21.369Z,98332.28
2023-01-10T05:49:49.315Z,98336.81
2023-01-10T05:52:18.638Z,98338.03
2023-01-10T05:54:47.115Z,98341.72
2023-01-10T05:57:15.262Z,98349.31
2023-01-10T05:59:43.419Z,98348.09
2023-01-10T06:02:12.235Z,98359.16
2023-01-10T06:04:40.287Z,98368.59
2023-01-10T06:07:08.212Z,98367.78
2023-01-10T06:09:37.811Z,98365.31
2023-01-10T06:12:06.343Z,98371.88
2023-01-10T06:14:34.318Z,98382.97
2023-01-10T06:17:02.626Z,98378.03
2023-01-10T06:19:30.454Z,98380.09
2023-01-10T06:21:58.378Z,98381.31
2023-01-10T06:24:26.512Z,98389.94
2023-01-10T06:26:55.882Z,98386.66
2023-01-10T06:29:23.918Z,98393.63
2023-01-10T06:31:52.358Z,98397.53
2023-01-10T06:34:20.498Z,98393.03
2023-01-10T06:36:48.899Z,98392.81
2023-01-10T06:39:17.728Z,98396.72
2023-01-10T06:41:45.797Z,98403.91
2023-01-10T06:44:15.321Z,98420.72
2023-01-10T06:46:44.079Z,98425.03
2023-01-10T06:49:12.628Z,98439.59
2023-01-10T06:51:40.879Z,98444.09
2023-01-10T06:54:09.167Z,98443.28
2023-01-10T06:56:37.065Z,98444.28
2023-01-10T06:59:06.659Z,98442.84
2023-01-10T07:01:37.168Z,98448.19
2023-01-10T07:04:05.727Z,98450.03
2023-01-10T07:06:37.884Z,98456.81
2023-01-10T07:09:06.976Z,98461.94
2023-01-10T07:11:35.223Z,98461.53
2023-01-10T07:14:05.354Z,98467.06
2023-01-10T07:16:33.452Z,98464.59
2023-01-10T07:19:03.062Z,98462.16
2023-01-10T07:21:31.267Z,98466.88
2023-01-10T07:24:01.566Z,98486.97
2023-01-10T07:26:30.296Z,98484.06
2023-01-10T07:28:58.848Z,98496.81
2023-01-10T07:31:26.853Z,98507.88
2023-01-10T07:33:55.249Z,98512.59
2023-01-10T07:36:25.094Z,98527.38
2023-01-10T07:38:53.063Z,98527.97
2023-01-10T07:41:21.124Z,98529.81
2023-01-10T07:43:50.199Z,98525.53
2023-01-10T07:46:18.412Z,98535.59
2023-01-10T07:48:47.040Z,98522.25
2023-01-10T07:51:15.030Z,98532.31
2023-01-10T07:53:44.345Z,98536.00
2023-01-10T07:56:12.351Z,98536.63
2023-01-10T07:58:40.901Z,98552.44
2023-01-10T08:01:09.160Z,98557.38
2023-01-10T08:03:37.784Z,98566.19
2023-01-10T08:06:07.727Z,98563.31
2023-01-10T08:08:36.287Z,98566.00
2023-01-10T08:11:06.322Z,98571.53
2023-01-10T08:13:35.053Z,98577.69
2023-01-10T08:16:06.723Z,98586.53
2023-01-10T08:18:35.239Z,98588.38
2023-01-10T08:21:03.163Z,98585.31
2023-01-10T08:23:32.464Z,98584.88
2023-01-10T08:26:00.775Z,98580.16
2023-01-10T08:28:30.246Z,98590.25
2023-01-10T08:30:58.443Z,98597.84
2023-01-10T08:33:27.834Z,98605.03
2023-01-10T08:35:55.878Z,98610.78
2023-01-10T08:38:23.918Z,98610.16
2023-01-10T08:40:51.815Z,98608.31
2023-01-10T08:43:20.398Z,98620.22
2023-01-10T08:45:50.106Z,98623.53
2023-01-10T08:48:18.106Z,98630.28
2023-01-10T08:50:46.293Z,98627.41
2023-01-10T08:53:14.818Z,98618.00
2023-01-10T08:55:42.670Z,98612.66
2023-01-10T08:58:11.817Z,98616.97
2023-01-10T09:00:39.731Z,98616.75
2023-01-10T09:03:09.608Z,98632.97
2023-01-10T09:05:37.584Z,98638.28
2023-01-10T09:08:06.411Z,98648.16
2023-01-10T09:10:34.263Z,98651.25
2023-01-10T09:13:02.373Z,98650.25
2023-01-10T09:15:32.351Z,98660.09
2023-01-10T09:18:03.073Z,98645.91
2023-01-10T09:20:32.880Z,98654.16
2023-01-10T09:23:05.831Z,98661.16
2023-01-10T09:25:33.776Z,98667.50
2023-01-10T09:28:03.978Z,98669.97
2023-01-10T09:30:33.105Z,98673.25
2023-01-10T09:33:04.473Z,98677.59
2023-01-10T09:35:37.036Z,98679.03
2023-01-10T09:38:06.805Z,98690.75
2023-01-10T09:40:53.289Z,98696.91
2023-01-10T09:43:28.957Z,98695.28
2023-01-10T09:46:04.740Z,98697.34
2023-01-10T09:48:42.441Z,98688.50
2023-01-10T09:51:24.514Z,98693.84
2023-01-10T09:53:57.881Z,98694.06
2023-01-10T09:56:32.740Z,98693.03
2023-01-10T09:59:03.090Z,98698.78
2023-01-10T10:01:37.090Z,98691.59
2023-01-10T10:04:24.381Z,98701.25
2023-01-10T10:06:55.131Z,98705.34
2023-01-10T10:09:26.548Z,98703.91
2023-01-10T10:12:16.188Z,98708.22
2023-01-10T10:14:56.731Z,98704.53
2023-01-10T10:17:44.789Z,98693.22
2023-01-10T10:20:30.581Z,98694.06
2023-01-10T10:23:15.827Z,98703.91
2023-01-10T10:25:55.868Z,98699.59
2023-01-10T10:28:53.824Z,98698.56
2023-01-10T10:31:35.206Z,98700.03
2023-01-10T10:34:10.782Z,98701.47
2023-01-10T10:36:44.293Z,98697.13
2023-01-10T10:39:17.897Z,98684.41
2023-01-10T10:41:49.589Z,98699.41
2023-01-10T10:44:38.084Z,98691.22
2023-01-10T10:47:14.834Z,98704.16
2023-01-10T10:49:48.615Z,98696.53
2023-01-10T10:52:25.045Z,98696.53
2023-01-10T10:54:55.160Z,98702.09
2023-01-10T10:57:27.333Z,98687.50
2023-01-10T10:59:56.050Z,98696.53
2023-01-10T11:02:27.881Z,98690.59
2023-01-10T11:05:00.654Z,98691.41
2023-01-10T11:07:34.118Z,98701.28
2023-01-10T11:10:18.823Z,98695.94
2023-01-10T11:12:51.082Z,98691.81
2023-01-10T11:15:38.037Z,98696.34
2023-01-10T11:18:08.383Z,98709.50
2023-01-10T11:20:36.502Z,98698.41
2023-01-10T11:23:06.114Z,98701.88
2023-01-10T11:25:35.360Z,98708.03
2023-01-10T11:28:03.502Z,98719.16
2023-01-10T11:30:33.366Z,98708.88
2023-01-10T11:33:03.826Z,98719.16
2023-01-10T11:35:37.356Z,98725.31
2023-01-10T11:38:08.276Z,98716.88
2023-01-10T11:40:39.723Z,98713.00
2023-01-10T11:43:26.782Z,98703.56
2023-01-10T11:45:57.842Z,98701.94
2023-01-10T11:48:56.279Z,98702.75
2023-01-10T11:51:23.720Z,98697.63
2023-01-10T11:53:59.019Z,98695.97
2023-01-10T11:56:33.123Z,98701.75
2023-01-10T11:59:11.741Z,98690.84
2023-01-10T12:01:43.324Z,98700.31
2023-01-10T12:04:17.797Z,98702.56
2023-01-10T12:06:49.264Z,98699.47
2023-01-10T12:09:34.079Z,98696.81
2023-01-10T12:12:08.369Z,98701.13
2023-01-10T12:14:36.414Z,98693.50
2023-01-10T12:17:05.557Z,98694.34
2023-01-10T12:19:34.264Z,98698.66
2023-01-10T12:22:08.824Z,98694.13
2023-01-10T12:24:40.911Z,98687.13
2023-01-10T12:27:13.652Z,98675.41
2023-01-10T12:29:47.087Z,98678.91
2023-01-10T12:32:20.653Z,98666.38
2023-01-10T12:34:56.177Z,98671.50
2023-01-10T12:37:33.638Z,98668.44
2023-01-10T12:40:06.918Z,98665.97
2023-01-10T12:43:04.753Z,98663.91
2023-01-10T12:45:40.063Z,98660.81
2023-01-10T12:48:18.654Z,98668.84
2023-01-10T12:50:51.492Z,98646.03
2023-01-10T12:53:29.822Z,98651.16
2023-01-10T12:56:00.846Z,98647.47
2023-01-10T12:58:37.604Z,98650.53
2023-01-10T13:01:09.109Z,98638.22
2023-01-10T13:03:37.379Z,98644.78
2023-01-10T13:06:05.678Z,98635.94
2023-01-10T13:08:36.861Z,98639.25
2023-01-10T13:11:07.809Z,98636.16
2023-01-10T13:13:42.430Z,98633.47
2023-01-10T13:16:25.196Z,98636.16
2023-01-10T13:19:05.083Z,98623.81
2023-01-10T13:21:35.521Z,98630.41
2023-01-10T13:24:05.727Z,98625.25
2023-01-10T13:26:51.147Z,98626.91
2023-01-10T13:29:23.150Z,98628.56
2023-01-10T13:31:57.392Z,98631.03
2023-01-10T13:34:28.294Z,98624.84
2023-01-10T13:36:59.828Z,98624.25
2023-01-10T13:39:34.021Z,98628.34
2023-01-10T13:42:30.683Z,98628.56
2023-01-10T13:45:23.170Z,98639.03
2023-01-10T13:48:19.222Z,98631.22
2023-01-10T13:51:00.027Z,98638.84
2023-01-10T13:53:54.916Z,98631.03
2023-01-10T13:56:37.975Z,98642.53
2023-01-10T13:59:30.931Z,98640.69
2023-01-10T14:02:21.513Z,98641.91
2023-01-10T14:04:53.044Z,98644.38
2023-01-10T14:07:26.834Z,98647.25
2023-01-10T14:10:03.870Z,98650.53
2023-01-10T14:12:37.178Z,98639.66
2023-01-10T14:15:09.312Z,98638.81
2023-01-10T14:17:40.624Z,98649.09
2023-01-10T14:20:23.081Z,98646.81
2023-01-10T14:23:07.380Z,98647.41
2023-01-10T14:25:37.382Z,98640.75
2023-01-10T14:28:09.344Z,98642.59
2023-01-10T14:30:41.174Z,98637.41
2023-01-10T14:33:19.556Z,98629.94
2023-01-10T14:35:51.453Z,98638.16
2023-01-10T14:38:26.191Z,98637.34
2023-01-10T14:40:58.479Z,98637.34
2023-01-10T14:43:29.879Z,98642.72
2023-01-10T14:46:04.852Z,98636.38
2023-01-10T14:48:35.881Z,98639.66
2023-01-10T14:51:22.153Z,98644.22
2023-01-10T14:53:58.439Z,98641.34
2023-01-10T14:56:29.012Z,98627.59
2023-01-10T14:58:56.950Z,98635.06
2023-01-10T15:01:28.523Z,98621.69
2023-01-10T15:04:02.958Z,98622.75
2023-01-10T15:06:52.601Z,98615.56
2023-01-10T15:09:20.889Z,98616.59
2023-01-10T15:11:50.321Z,98618.66
2023-01-10T15:14:20.776Z,98615.38
2023-01-10T15:16:50.143Z,98603.03
2023-01-10T15:19:23.317Z,98597.69
2023-01-10T15:21:51.825Z,98595.63
2023-01-10T15:24:33.050Z,98597.28
2023-01-10T15:27:03.235Z,98594.63
2023-01-10T15:29:32.185Z,98578.81
2023-01-10T15:32:11.439Z,98580.25
2023-01-10T15:34:42.316Z,98577.38
2023-01-10T15:37:21.037Z,98578.41
2023-01-10T15:39:49.987Z,98574.91
2023-01-10T15:42:21.665Z,98575.31
2023-01-10T15:44:53.861Z,98573.88
2023-01-10T15:47:41.670Z,98564.88
2023-01-10T15:50:35.638Z,98568.16
2023-01-10T15:53:07.526Z,98557.28
2023-01-10T15:55:45.993Z,98560.13
2023-01-10T15:58:21.185Z,98554.56
2023-01-10T16:00:52.556Z,98555.81
2023-01-10T16:03:28.248Z,98556.22
2023-01-10T16:06:00.925Z,98557.66
2023-01-10T16:08:32.697Z,98560.13
2023-01-10T16:11:02.350Z,98564.63
2023-01-10T16:13:31.685Z,98563.22
2023-01-10T16:16:00.704Z,98557.03
2023-01-10T16:18:28.779Z,98565.06
2023-01-10T16:21:02.914Z,98556.63
2023-01-10T16:23:34.521Z,98568.34
2023-01-10T16:26:06.028Z,98564.00
2023-01-10T16:28:36.291Z,98554.78
2023-01-10T16:31:06.582Z,98561.53
2023-01-10T16:33:37.255Z,98564.41
2023-01-10T16:36:17.293Z,98554.56
2023-01-10T16:38:45.925Z,98561.13
2023-01-10T16:41:32.824Z,98555.97
2023-01-10T16:44:02.279Z,98561.72
2023-01-10T16:46:30.941Z,98557.81
2023-01-10T16:48:59.034Z,98550.63
2023-01-10T16:51:30.707Z,98549.41
2023-01-10T16:53:58.641Z,98541.00
2023-01-10T16:56:29.188Z,98544.06
2023-01-10T16:58:57.992Z,98537.28
2023-01-10T17:01:30.021Z,98536.47
2023-01-10T17:03:59.286Z,98527.22
2023-01-10T17:06:28.826Z,98524.97
2023-01-10T17:08:57.047Z,98527.03
2023-01-10T17:11:29.864Z,98527.22
2023-01-10T17:13:59.128Z,98521.69
2023-01-10T17:16:27.144Z,98517.38
2023-01-10T17:18:55.107Z,98519.03
2023-01-10T17:21:24.155Z,98521.91
2023-01-10T17:23:53.635Z,98528.06
2023-01-10T17:26:21.701Z,98527.63
2023-01-10T17:28:49.903Z,98517.19
2023-01-10T17:31:19.831Z,98517.78
2023-01-10T17:33:49.433Z,98518.00
2023-01-10T17:36:19.436Z,98513.69
2023-01-10T17:38:47.693Z,98520.06
2023-01-10T17:41:18.165Z,98511.44
2023-01-10T17:43:46.861Z,98504.66
2023-01-10T17:46:16.668Z,98503.44
2023-01-10T17:48:45.268Z,98510.81
2023-01-10T17:51:13.508Z,98497.06
2023-01-10T17:53:41.984Z,98503.03
2023-01-10T17:56:10.307Z,98502.41
2023-01-10T17:58:39.978Z,98501.19
2023-01-10T18:01:08.193Z,98502.63
2023-01-10T18:03:36.524Z,98498.31
2023-01-10T18:06:07.677Z,98500.13
2023-01-10T18:08:36.954Z,98493.16
2023-01-10T18:11:06.963Z,98488.66
2023-01-10T18:13:35.199Z,98485.34
2023-01-10T18:16:05.457Z,98500.13
2023-01-10T18:18:33.543Z,98498.28
2023-01-10T18:21:02.336Z,98493.97
2023-01-10T18:23:32.207Z,98497.88
2023-01-10T18:26:01.651Z,98500.34
2023-01-10T18:28:40.407Z,98485.75
2023-01-10T18:31:12.974Z,98483.09
2023-01-10T18:33:42.129Z,98473.88
2023-01-10T18:36:15.579Z,98469.75
2023-01-10T18:38:44.480Z,98462.78
2023-01-10T18:41:12.723Z,98462.16
2023-01-10T18:43:41.030Z,98455.38
2023-01-10T18:46:12.151Z,98461.34
2023-01-10T18:48:40.348Z,98447.38
2023-01-10T18:51:10.351Z,98450.03
2023-01-10T18:53:38.709Z,98446.75
2023-01-10T18:56:07.734Z,98442.84
2023-01-10T18:58:38.594Z,98435.47
2023-01-10T19:01:10.340Z,98434.63
2023-01-10T19:03:42.966Z,98442.84
2023-01-10T19:06:16.730Z,98432.59
2023-01-10T19:08:56.111Z,98433.63
2023-01-10T19:11:27.007Z,98421.50
2023-01-10T19:13:55.547Z,98432.38
2023-01-10T19:16:25.460Z,98425.81
2023-01-10T19:18:58.881Z,98416.38
2023-01-10T19:21:30.261Z,98403.84
2023-01-10T19:24:02.888Z,98408.56
2023-01-10T19:26:32.335Z,98405.28
2023-01-10T19:29:00.396Z,98396.88
2023-01-10T19:31:30.462Z,98403.84
2023-01-10T19:34:02.273Z,98406.94
2023-01-10T19:36:34.728Z,98411.25
2023-01-10T19:39:03.286Z,98419.25
2023-01-10T19:41:31.237Z,98416.56
2023-01-10T19:44:00.826Z,98416.16
2023-01-10T19:46:31.588Z,98417.81
2023-01-10T19:49:04.820Z,98410.00
2023-01-10T19:51:32.787Z,98397.66
2023-01-10T19:54:02.713Z,98400.34
2023-01-10T19:56:31.253Z,98394.59
2023-01-10T19:58:59.787Z,98392.53
2023-01-10T20:01:29.678Z,98391.50
2023-01-10T20:04:02.367Z,98394.78
2023-01-10T20:06:33.564Z,98390.28
2023-01-10T20:09:02.126Z,98399.09
2023-01-10T20:11:37.429Z,98389.66
2023-01-10T20:14:05.974Z,98385.75
2023-01-10T20:16:34.227Z,98396.63
2023-01-10T20:19:02.204Z,98395.19
2023-01-10T20:21:32.087Z,98390.06
2023-01-10T20:24:00.384Z,98395.38
2023-01-10T20:26:30.527Z,98390.03
2023-01-10T20:29:02.820Z,98393.31
2023-01-10T20:31:30.995Z,98394.34
2023-01-10T20:34:04.945Z,98394.16
2023-01-10T20:36:34.326Z,98398.44
2023-01-10T20:39:03.050Z,98404.63
2023-01-10T20:41:32.610Z,98399.47
2023-01-10T20:44:00.906Z,98400.09
2023-01-10T20:46:30.854Z,98404.22
2023-01-10T20:49:02.391Z,98403.81
2023-01-10T20:51:33.531Z,98396.63
2023-01-10T20:54:04.499Z,98397.84
2023-01-10T20:56:35.196Z,98400.53
2023-01-10T20:59:03.824Z,98399.69
2023-01-10T21:01:35.206Z,98403.81
2023-01-10T21:04:04.955Z,98394.97
2023-01-10T21:06:33.385Z,98391.09
2023-01-10T21:09:02.900Z,98390.28
2023-01-10T21:11:30.967Z,98378.38
2023-01-10T21:13:58.938Z,98375.69
2023-01-10T21:16:26.949Z,98372.84
2023-01-10T21:18:54.877Z,98358.69
2023-01-10T21:21:24.304Z,98352.13
2023-01-10T21:23:54.939Z,98356.41
2023-01-10T21:26:24.958Z,98354.16
2023-01-10T21:28:52.927Z,98354.38
2023-01-10T21:31:23.594Z,98341.84
2023-01-10T21:33:51.919Z,98351.31
2023-01-10T21:36:19.987Z,98358.50
2023-01-10T21:38:49.119Z,98357.47
2023-01-10T21:41:40.248Z,98349.47
2023-01-10T21:44:09.781Z,98356.22
2023-01-10T21:46:38.041Z,98354.38
2023-01-10T21:49:06.903Z,98358.91
2023-01-10T21:51:34.791Z,98362.59
2023-01-10T21:54:03.100Z,98360.97
2023-01-10T21:56:31.915Z,98369.97
2023-01-10T21:59:02.472Z,98363.41
2023-01-10T22:01:39.608Z,98370.97
2023-01-10T22:04:08.460Z,98366.69
2023-01-10T22:06:36.864Z,98368.97
2023-01-10T22:09:07.000Z,98365.88
2023-01-10T22:11:35.169Z,98362.84
2023-01-10T22:14:03.378Z,98360.38
2023-01-10T22:16:32.055Z,98363.00
2023-01-10T22:19:01.464Z,98352.19
2023-01-10T22:21:29.765Z,98350.75
2023-01-10T22:23:57.945Z,98355.69
2023-01-10T22:26:25.804Z,98353.22
2023-01-10T22:28:53.680Z,98341.94
2023-01-10T22:31:22.174Z,98347.69
2023-01-10T22:33:50.180Z,98348.28
2023-01-10T22:36:20.482Z,98343.78
2023-01-10T22:38:50.505Z,98331.88
2023-01-10T22:41:20.902Z,98330.25
2023-01-10T22:43:49.220Z,98314.84
2023-01-10T22:46:17.414Z,98310.94
2023-01-10T22:48:45.596Z,98303.78
2023-01-10T22:51:14.170Z,98301.53
2023-01-10T22:53:43.826Z,98305.41
2023-01-10T22:56:13.510Z,98294.97
2023-01-10T22:58:47.923Z,98292.91
2023-01-10T23:01:17.350Z,98294.75
2023-01-10T23:03:45.989Z,98295.59
2023-01-10T23:06:15.608Z,98293.13
2023-01-10T23:08:45.777Z,98295.78
2023-01-10T23:11:16.708Z,98293.31
2023-01-10T23:13:45.230Z,98290.44
2023-01-10T23:16:15.073Z,98290.66
2023-01-10T23:18:43.258Z,98275.69
2023-01-10T23:21:11.275Z,98274.66
2023-01-10T23:23:39.148Z,98271.16
2023-01-10T23:26:12.080Z,98270.97
2023-01-10T23:28:44.953Z,98261.94
2023-01-10T23:31:14.415Z,98259.28
2023-01-10T23:33:42.726Z,98260.66
2023-01-10T23:36:12.312Z,98257.63
2023-01-10T23:38:41.116Z,98248.53
2023-01-10T23:41:11.137Z,98256.97
2023-01-10T23:43:39.414Z,98247.13
2023-01-10T23:46:08.431Z,98253.50
2023-01-10T23:48:36.474Z,98257.00
2023-01-10T23:51:07.702Z,98256.59
2023-01-10T23:53:35.947Z,98256.38
2023-01-10T23:56:07.470Z,98256.38
2023-01-10T23:58:37.415Z,98254.53
